sensor_id;sensor_type;location;lat;lon;timestamp;P1;durP1;ratioP1;P2;durP2;ratioP2
22388;SDS011;11362;48.102;11.620;2022-09-17T00:00:15;1.00;;;1.00;;
22388;SDS011;11362;48.102;11.620;2022-09-17T00:02:41;0.80;;;0.80;;
22388;SDS011;11362;48.102;11.620;2022-09-17T00:05:06;0.60;;;0.60;;
22388;SDS011;11362;48.102;11.620;2022-09-17T00:07:31;0.80;;;0.80;;
22388;SDS011;11362;48.102;11.620;2022-09-17T00:09:57;0.97;;;0.97;;
22388;SDS011;11362;48.102;11.620;2022-09-17T00:12:22;0.80;;;0.80;;
22388;SDS011;11362;48.102;11.620;2022-09-17T00:14:47;0.70;;;0.70;;
22388;SDS011;11362;48.102;11.620;2022-09-17T00:17:12;0.90;;;0.90;;
22388;SDS011;11362;48.102;11.620;2022-09-17T00:19:38;0.83;;;0.80;;
22388;SDS011;11362;48.102;11.620;2022-09-17T00:22:03;0.87;;;0.87;;
22388;SDS011;11362;48.102;11.620;2022-09-17T00:24:28;0.70;;;0.70;;
22388;SDS011;11362;48.102;11.620;2022-09-17T00:26:54;0.70;;;0.60;;
22388;SDS011;11362;48.102;11.620;2022-09-17T00:29:20;0.93;;;0.93;;
22388;SDS011;11362;48.102;11.620;2022-09-17T00:31:45;0.70;;;0.70;;
22388;SDS011;11362;48.102;11.620;2022-09-17T00:34:10;0.70;;;0.70;;
22388;SDS011;11362;48.102;11.620;2022-09-17T00:36:36;1.00;;;1.00;;
22388;SDS011;11362;48.102;11.620;2022-09-17T00:39:03;0.57;;;0.57;;
22388;SDS011;11362;48.102;11.620;2022-09-17T00:41:32;0.97;;;0.70;;
22388;SDS011;11362;48.102;11.620;2022-09-17T00:44:00;0.70;;;0.70;;
22388;SDS011;11362;48.102;11.620;2022-09-17T00:46:46;0.83;;;0.83;;
22388;SDS011;11362;48.102;11.620;2022-09-17T00:49:15;0.70;;;0.70;;
22388;SDS011;11362;48.102;11.620;2022-09-17T00:54:40;0.70;;;0.70;;
22388;SDS011;11362;48.102;11.620;2022-09-17T00:57:08;0.93;;;0.90;;
22388;SDS011;11362;48.102;11.620;2022-09-17T00:59:34;0.80;;;0.80;;
22388;SDS011;11362;48.102;11.620;2022-09-17T01:02:00;1.70;;;0.97;;
22388;SDS011;11362;48.102;11.620;2022-09-17T01:04:27;1.03;;;0.60;;
22388;SDS011;11362;48.102;11.620;2022-09-17T01:12:20;0.67;;;0.67;;
22388;SDS011;11362;48.102;11.620;2022-09-17T01:15:28;0.70;;;0.70;;
22388;SDS011;11362;48.102;11.620;2022-09-17T01:18:14;0.70;;;0.70;;
22388;SDS011;11362;48.102;11.620;2022-09-17T01:26:36;0.77;;;0.77;;
22388;SDS011;11362;48.102;11.620;2022-09-17T01:31:50;1.53;;;0.80;;
22388;SDS011;11362;48.102;11.620;2022-09-17T01:34:30;0.70;;;0.70;;
22388;SDS011;11362;48.102;11.620;2022-09-17T01:37:13;0.80;;;0.80;;
22388;SDS011;11362;48.102;11.620;2022-09-17T01:39:50;0.73;;;0.73;;
22388;SDS011;11362;48.102;11.620;2022-09-17T01:42:24;1.10;;;1.00;;
22388;SDS011;11362;48.102;11.620;2022-09-17T01:48:10;0.50;;;0.50;;
22388;SDS011;11362;48.102;11.620;2022-09-17T01:50:41;0.70;;;0.70;;
22388;SDS011;11362;48.102;11.620;2022-09-17T01:53:11;0.50;;;0.50;;
22388;SDS011;11362;48.102;11.620;2022-09-17T01:55:40;0.60;;;0.60;;
22388;SDS011;11362;48.102;11.620;2022-09-17T01:58:14;0.80;;;0.80;;
22388;SDS011;11362;48.102;11.620;2022-09-17T02:00:46;0.77;;;0.60;;
22388;SDS011;11362;48.102;11.620;2022-09-17T02:03:23;1.10;;;0.70;;
22388;SDS011;11362;48.102;11.620;2022-09-17T02:05:58;0.80;;;0.80;;
22388;SDS011;11362;48.102;11.620;2022-09-17T02:08:44;0.53;;;0.53;;
22388;SDS011;11362;48.102;11.620;2022-09-17T02:11:14;0.80;;;0.80;;
22388;SDS011;11362;48.102;11.620;2022-09-17T02:13:41;0.80;;;0.80;;
22388;SDS011;11362;48.102;11.620;2022-09-17T02:16:14;0.70;;;0.70;;
22388;SDS011;11362;48.102;11.620;2022-09-17T02:18:53;0.67;;;0.67;;
22388;SDS011;11362;48.102;11.620;2022-09-17T02:24:00;0.63;;;0.63;;
22388;SDS011;11362;48.102;11.620;2022-09-17T02:26:34;0.70;;;0.70;;
22388;SDS011;11362;48.102;11.620;2022-09-17T02:29:08;0.70;;;0.70;;
22388;SDS011;11362;48.102;11.620;2022-09-17T02:31:40;0.47;;;0.47;;
22388;SDS011;11362;48.102;11.620;2022-09-17T02:34:05;0.70;;;0.70;;
22388;SDS011;11362;48.102;11.620;2022-09-17T02:36:31;0.60;;;0.60;;
22388;SDS011;11362;48.102;11.620;2022-09-17T02:39:00;0.53;;;0.53;;
22388;SDS011;11362;48.102;11.620;2022-09-17T02:41:39;0.80;;;0.80;;
22388;SDS011;11362;48.102;11.620;2022-09-17T02:44:17;0.80;;;0.80;;
22388;SDS011;11362;48.102;11.620;2022-09-17T02:55:06;0.73;;;0.63;;
22388;SDS011;11362;48.102;11.620;2022-09-17T03:00:16;0.50;;;0.50;;
22388;SDS011;11362;48.102;11.620;2022-09-17T03:02:52;0.70;;;0.67;;
22388;SDS011;11362;48.102;11.620;2022-09-17T03:05:23;0.50;;;0.50;;
22388;SDS011;11362;48.102;11.620;2022-09-17T03:07:49;0.60;;;0.60;;
22388;SDS011;11362;48.102;11.620;2022-09-17T03:10:15;0.80;;;0.70;;
22388;SDS011;11362;48.102;11.620;2022-09-17T03:12:41;0.73;;;0.73;;
22388;SDS011;11362;48.102;11.620;2022-09-17T03:15:06;0.77;;;0.77;;
22388;SDS011;11362;48.102;11.620;2022-09-17T03:17:32;0.63;;;0.63;;
22388;SDS011;11362;48.102;11.620;2022-09-17T03:19:58;0.60;;;0.60;;
22388;SDS011;11362;48.102;11.620;2022-09-17T03:22:23;0.63;;;0.63;;
22388;SDS011;11362;48.102;11.620;2022-09-17T03:24:48;0.73;;;0.70;;
22388;SDS011;11362;48.102;11.620;2022-09-17T03:27:14;0.57;;;0.50;;
22388;SDS011;11362;48.102;11.620;2022-09-17T03:29:40;0.30;;;0.30;;
22388;SDS011;11362;48.102;11.620;2022-09-17T03:32:05;0.70;;;0.60;;
22388;SDS011;11362;48.102;11.620;2022-09-17T03:34:30;0.50;;;0.50;;
22388;SDS011;11362;48.102;11.620;2022-09-17T03:36:56;0.60;;;0.60;;
22388;SDS011;11362;48.102;11.620;2022-09-17T03:39:21;0.50;;;0.50;;
22388;SDS011;11362;48.102;11.620;2022-09-17T03:41:46;0.60;;;0.60;;
22388;SDS011;11362;48.102;11.620;2022-09-17T03:44:12;0.40;;;0.40;;
22388;SDS011;11362;48.102;11.620;2022-09-17T03:46:37;0.60;;;0.60;;
22388;SDS011;11362;48.102;11.620;2022-09-17T03:49:02;0.40;;;0.40;;
22388;SDS011;11362;48.102;11.620;2022-09-17T03:51:28;0.33;;;0.33;;
22388;SDS011;11362;48.102;11.620;2022-09-17T03:53:53;0.40;;;0.40;;
22388;SDS011;11362;48.102;11.620;2022-09-17T03:56:18;0.50;;;0.50;;
22388;SDS011;11362;48.102;11.620;2022-09-17T03:58:43;0.40;;;0.40;;
22388;SDS011;11362;48.102;11.620;2022-09-17T04:01:09;0.60;;;0.60;;
22388;SDS011;11362;48.102;11.620;2022-09-17T04:03:34;1.03;;;0.60;;
22388;SDS011;11362;48.102;11.620;2022-09-17T04:05:59;0.50;;;0.50;;
22388;SDS011;11362;48.102;11.620;2022-09-17T04:08:25;0.50;;;0.50;;
22388;SDS011;11362;48.102;11.620;2022-09-17T04:10:50;1.03;;;0.60;;
22388;SDS011;11362;48.102;11.620;2022-09-17T04:13:16;0.50;;;0.50;;
22388;SDS011;11362;48.102;11.620;2022-09-17T04:15:42;0.60;;;0.60;;
22388;SDS011;11362;48.102;11.620;2022-09-17T04:18:09;0.63;;;0.40;;
22388;SDS011;11362;48.102;11.620;2022-09-17T04:20:34;0.40;;;0.40;;
22388;SDS011;11362;48.102;11.620;2022-09-17T04:22:59;0.60;;;0.60;;
22388;SDS011;11362;48.102;11.620;2022-09-17T04:25:24;0.50;;;0.50;;
22388;SDS011;11362;48.102;11.620;2022-09-17T04:27:50;0.83;;;0.50;;
22388;SDS011;11362;48.102;11.620;2022-09-17T04:30:15;0.40;;;0.40;;
22388;SDS011;11362;48.102;11.620;2022-09-17T04:32:44;0.30;;;0.30;;
22388;SDS011;11362;48.102;11.620;2022-09-17T04:35:10;0.50;;;0.50;;
22388;SDS011;11362;48.102;11.620;2022-09-17T04:37:36;1.10;;;0.47;;
22388;SDS011;11362;48.102;11.620;2022-09-17T04:40:02;0.70;;;0.70;;
22388;SDS011;11362;48.102;11.620;2022-09-17T04:42:28;0.50;;;0.50;;
22388;SDS011;11362;48.102;11.620;2022-09-17T04:44:53;0.40;;;0.40;;
22388;SDS011;11362;48.102;11.620;2022-09-17T04:47:18;1.13;;;0.50;;
22388;SDS011;11362;48.102;11.620;2022-09-17T04:49:44;0.77;;;0.63;;
22388;SDS011;11362;48.102;11.620;2022-09-17T04:52:09;0.80;;;0.60;;
22388;SDS011;11362;48.102;11.620;2022-09-17T04:54:35;0.63;;;0.63;;
22388;SDS011;11362;48.102;11.620;2022-09-17T04:57:00;0.53;;;0.53;;
22388;SDS011;11362;48.102;11.620;2022-09-17T04:59:25;0.40;;;0.40;;
22388;SDS011;11362;48.102;11.620;2022-09-17T05:01:51;0.67;;;0.50;;
22388;SDS011;11362;48.102;11.620;2022-09-17T05:04:16;0.30;;;0.30;;
22388;SDS011;11362;48.102;11.620;2022-09-17T05:06:41;0.40;;;0.40;;
22388;SDS011;11362;48.102;11.620;2022-09-17T05:09:07;0.33;;;0.30;;
22388;SDS011;11362;48.102;11.620;2022-09-17T05:11:32;0.40;;;0.40;;
22388;SDS011;11362;48.102;11.620;2022-09-17T05:13:58;0.40;;;0.40;;
22388;SDS011;11362;48.102;11.620;2022-09-17T05:16:23;0.43;;;0.43;;
22388;SDS011;11362;48.102;11.620;2022-09-17T05:18:48;0.30;;;0.30;;
22388;SDS011;11362;48.102;11.620;2022-09-17T05:21:14;0.40;;;0.40;;
22388;SDS011;11362;48.102;11.620;2022-09-17T05:23:39;0.40;;;0.40;;
22388;SDS011;11362;48.102;11.620;2022-09-17T05:26:05;0.40;;;0.40;;
22388;SDS011;11362;48.102;11.620;2022-09-17T05:28:30;1.07;;;0.60;;
22388;SDS011;11362;48.102;11.620;2022-09-17T05:30:58;0.30;;;0.30;;
22388;SDS011;11362;48.102;11.620;2022-09-17T05:33:24;0.37;;;0.37;;
22388;SDS011;11362;48.102;11.620;2022-09-17T05:35:50;0.40;;;0.40;;
22388;SDS011;11362;48.102;11.620;2022-09-17T05:38:15;0.30;;;0.30;;
22388;SDS011;11362;48.102;11.620;2022-09-17T05:40:40;0.40;;;0.40;;
22388;SDS011;11362;48.102;11.620;2022-09-17T05:43:06;0.50;;;0.50;;
22388;SDS011;11362;48.102;11.620;2022-09-17T05:45:32;0.50;;;0.50;;
22388;SDS011;11362;48.102;11.620;2022-09-17T05:47:59;1.70;;;0.50;;
22388;SDS011;11362;48.102;11.620;2022-09-17T05:50:26;0.60;;;0.60;;
22388;SDS011;11362;48.102;11.620;2022-09-17T05:52:52;0.47;;;0.47;;
22388;SDS011;11362;48.102;11.620;2022-09-17T05:55:19;0.40;;;0.40;;
22388;SDS011;11362;48.102;11.620;2022-09-17T05:57:45;1.03;;;0.40;;
22388;SDS011;11362;48.102;11.620;2022-09-17T06:00:10;1.37;;;0.30;;
22388;SDS011;11362;48.102;11.620;2022-09-17T06:02:36;0.50;;;0.50;;
22388;SDS011;11362;48.102;11.620;2022-09-17T06:05:02;0.40;;;0.40;;
22388;SDS011;11362;48.102;11.620;2022-09-17T06:07:28;0.50;;;0.50;;
22388;SDS011;11362;48.102;11.620;2022-09-17T06:09:54;0.63;;;0.60;;
22388;SDS011;11362;48.102;11.620;2022-09-17T06:12:19;0.50;;;0.50;;
22388;SDS011;11362;48.102;11.620;2022-09-17T06:14:44;1.40;;;0.40;;
22388;SDS011;11362;48.102;11.620;2022-09-17T06:17:10;0.60;;;0.60;;
22388;SDS011;11362;48.102;11.620;2022-09-17T06:19:35;0.40;;;0.40;;
22388;SDS011;11362;48.102;11.620;2022-09-17T06:22:00;0.50;;;0.50;;
22388;SDS011;11362;48.102;11.620;2022-09-17T06:24:26;0.50;;;0.47;;
22388;SDS011;11362;48.102;11.620;2022-09-17T06:26:51;0.40;;;0.40;;
22388;SDS011;11362;48.102;11.620;2022-09-17T06:29:17;0.87;;;0.40;;
22388;SDS011;11362;48.102;11.620;2022-09-17T06:31:42;2.07;;;0.47;;
22388;SDS011;11362;48.102;11.620;2022-09-17T06:34:07;0.40;;;0.40;;
22388;SDS011;11362;48.102;11.620;2022-09-17T06:36:32;0.43;;;0.43;;
22388;SDS011;11362;48.102;11.620;2022-09-17T06:38:58;0.30;;;0.30;;
22388;SDS011;11362;48.102;11.620;2022-09-17T06:41:23;0.50;;;0.50;;
22388;SDS011;11362;48.102;11.620;2022-09-17T06:43:51;0.30;;;0.30;;
22388;SDS011;11362;48.102;11.620;2022-09-17T06:46:17;0.50;;;0.50;;
22388;SDS011;11362;48.102;11.620;2022-09-17T06:48:42;0.97;;;0.40;;
22388;SDS011;11362;48.102;11.620;2022-09-17T06:51:08;1.10;;;0.50;;
22388;SDS011;11362;48.102;11.620;2022-09-17T06:53:35;0.57;;;0.57;;
22388;SDS011;11362;48.102;11.620;2022-09-17T06:56:01;0.50;;;0.43;;
22388;SDS011;11362;48.102;11.620;2022-09-17T06:58:28;0.83;;;0.67;;
22388;SDS011;11362;48.102;11.620;2022-09-17T07:00:57;0.53;;;0.40;;
22388;SDS011;11362;48.102;11.620;2022-09-17T07:03:26;0.43;;;0.40;;
22388;SDS011;11362;48.102;11.620;2022-09-17T07:05:53;1.13;;;0.70;;
22388;SDS011;11362;48.102;11.620;2022-09-17T07:08:18;0.70;;;0.60;;
22388;SDS011;11362;48.102;11.620;2022-09-17T07:10:43;0.57;;;0.57;;
22388;SDS011;11362;48.102;11.620;2022-09-17T07:13:09;0.40;;;0.40;;
22388;SDS011;11362;48.102;11.620;2022-09-17T07:15:34;0.87;;;0.40;;
22388;SDS011;11362;48.102;11.620;2022-09-17T07:17:59;0.50;;;0.50;;
22388;SDS011;11362;48.102;11.620;2022-09-17T07:20:31;0.63;;;0.50;;
22388;SDS011;11362;48.102;11.620;2022-09-17T07:22:57;0.70;;;0.30;;
22388;SDS011;11362;48.102;11.620;2022-09-17T07:25:23;0.50;;;0.50;;
22388;SDS011;11362;48.102;11.620;2022-09-17T07:27:49;0.50;;;0.50;;
22388;SDS011;11362;48.102;11.620;2022-09-17T07:30:14;0.63;;;0.60;;
22388;SDS011;11362;48.102;11.620;2022-09-17T07:32:40;1.50;;;0.47;;
22388;SDS011;11362;48.102;11.620;2022-09-17T07:35:05;1.40;;;0.60;;
22388;SDS011;11362;48.102;11.620;2022-09-17T07:37:31;1.17;;;0.57;;
22388;SDS011;11362;48.102;11.620;2022-09-17T07:39:56;0.50;;;0.50;;
22388;SDS011;11362;48.102;11.620;2022-09-17T07:42:22;0.57;;;0.50;;
22388;SDS011;11362;48.102;11.620;2022-09-17T07:44:47;0.53;;;0.53;;
22388;SDS011;11362;48.102;11.620;2022-09-17T07:47:12;1.47;;;0.60;;
22388;SDS011;11362;48.102;11.620;2022-09-17T07:49:37;1.53;;;0.60;;
22388;SDS011;11362;48.102;11.620;2022-09-17T07:52:03;1.10;;;0.60;;
22388;SDS011;11362;48.102;11.620;2022-09-17T07:54:28;3.00;;;0.70;;
22388;SDS011;11362;48.102;11.620;2022-09-17T07:56:53;1.90;;;0.70;;
22388;SDS011;11362;48.102;11.620;2022-09-17T07:59:19;1.23;;;1.00;;
22388;SDS011;11362;48.102;11.620;2022-09-17T08:01:44;0.83;;;0.50;;
22388;SDS011;11362;48.102;11.620;2022-09-17T08:04:09;5.73;;;1.13;;
22388;SDS011;11362;48.102;11.620;2022-09-17T08:06:35;0.83;;;0.70;;
22388;SDS011;11362;48.102;11.620;2022-09-17T08:09:02;1.00;;;0.60;;
22388;SDS011;11362;48.102;11.620;2022-09-17T08:11:28;0.63;;;0.60;;
22388;SDS011;11362;48.102;11.620;2022-09-17T08:13:54;1.10;;;1.00;;
22388;SDS011;11362;48.102;11.620;2022-09-17T08:16:20;4.73;;;1.40;;
22388;SDS011;11362;48.102;11.620;2022-09-17T08:18:47;1.30;;;0.87;;
22388;SDS011;11362;48.102;11.620;2022-09-17T08:21:14;2.00;;;1.03;;
22388;SDS011;11362;48.102;11.620;2022-09-17T08:23:41;2.00;;;1.23;;
22388;SDS011;11362;48.102;11.620;2022-09-17T08:26:11;2.17;;;1.00;;
22388;SDS011;11362;48.102;11.620;2022-09-17T08:28:37;2.13;;;0.90;;
22388;SDS011;11362;48.102;11.620;2022-09-17T08:31:04;4.47;;;1.50;;
22388;SDS011;11362;48.102;11.620;2022-09-17T08:33:31;6.83;;;1.33;;
22388;SDS011;11362;48.102;11.620;2022-09-17T08:35:57;2.93;;;1.10;;
22388;SDS011;11362;48.102;11.620;2022-09-17T08:38:24;2.57;;;1.33;;
22388;SDS011;11362;48.102;11.620;2022-09-17T08:43:18;2.13;;;1.37;;
22388;SDS011;11362;48.102;11.620;2022-09-17T08:45:44;2.60;;;0.87;;
22388;SDS011;11362;48.102;11.620;2022-09-17T08:48:15;3.23;;;1.63;;
22388;SDS011;11362;48.102;11.620;2022-09-17T08:50:40;3.23;;;1.03;;
22388;SDS011;11362;48.102;11.620;2022-09-17T08:53:12;4.10;;;1.43;;
22388;SDS011;11362;48.102;11.620;2022-09-17T08:55:57;2.80;;;1.53;;
22388;SDS011;11362;48.102;11.620;2022-09-17T08:58:29;2.00;;;1.00;;
22388;SDS011;11362;48.102;11.620;2022-09-17T09:01:05;6.20;;;1.40;;
22388;SDS011;11362;48.102;11.620;2022-09-17T09:06:23;3.37;;;1.40;;
22388;SDS011;11362;48.102;11.620;2022-09-17T09:08:59;4.67;;;1.50;;
22388;SDS011;11362;48.102;11.620;2022-09-17T09:11:28;3.83;;;1.50;;
22388;SDS011;11362;48.102;11.620;2022-09-17T09:14:43;4.10;;;1.27;;
22388;SDS011;11362;48.102;11.620;2022-09-17T09:16:47;2.87;;;1.57;;
22388;SDS011;11362;48.102;11.620;2022-09-17T09:19:23;2.97;;;1.23;;
22388;SDS011;11362;48.102;11.620;2022-09-17T09:22:33;2.23;;;1.30;;
22388;SDS011;11362;48.102;11.620;2022-09-17T09:25:00;5.03;;;1.43;;
22388;SDS011;11362;48.102;11.620;2022-09-17T09:27:36;6.20;;;1.70;;
22388;SDS011;11362;48.102;11.620;2022-09-17T09:30:11;2.03;;;1.60;;
22388;SDS011;11362;48.102;11.620;2022-09-17T09:35:21;2.63;;;1.40;;
22388;SDS011;11362;48.102;11.620;2022-09-17T09:37:53;2.23;;;1.40;;
22388;SDS011;11362;48.102;11.620;2022-09-17T09:40:26;2.63;;;1.50;;
22388;SDS011;11362;48.102;11.620;2022-09-17T09:42:59;3.10;;;1.47;;
22388;SDS011;11362;48.102;11.620;2022-09-17T09:48:30;4.53;;;1.60;;
22388;SDS011;11362;48.102;11.620;2022-09-17T09:59:10;2.40;;;1.43;;
22388;SDS011;11362;48.102;11.620;2022-09-17T10:01:37;4.47;;;1.63;;
22388;SDS011;11362;48.102;11.620;2022-09-17T10:04:13;2.97;;;1.33;;
22388;SDS011;11362;48.102;11.620;2022-09-17T10:06:41;3.27;;;1.37;;
22388;SDS011;11362;48.102;11.620;2022-09-17T10:11:32;6.30;;;1.93;;
22388;SDS011;11362;48.102;11.620;2022-09-17T10:19:39;2.53;;;1.40;;
22388;SDS011;11362;48.102;11.620;2022-09-17T10:22:17;2.77;;;1.50;;
22388;SDS011;11362;48.102;11.620;2022-09-17T10:24:46;2.60;;;1.80;;
22388;SDS011;11362;48.102;11.620;2022-09-17T10:27:13;2.67;;;1.27;;
22388;SDS011;11362;48.102;11.620;2022-09-17T10:29:42;2.70;;;1.50;;
22388;SDS011;11362;48.102;11.620;2022-09-17T10:32:16;2.77;;;1.57;;
22388;SDS011;11362;48.102;11.620;2022-09-17T10:35:00;3.20;;;1.43;;
22388;SDS011;11362;48.102;11.620;2022-09-17T10:42:41;4.80;;;1.70;;
22388;SDS011;11362;48.102;11.620;2022-09-17T10:45:10;2.40;;;1.73;;
22388;SDS011;11362;48.102;11.620;2022-09-17T10:47:48;3.33;;;1.73;;
22388;SDS011;11362;48.102;11.620;2022-09-17T10:50:23;2.60;;;1.70;;
22388;SDS011;11362;48.102;11.620;2022-09-17T10:52:53;2.80;;;1.50;;
22388;SDS011;11362;48.102;11.620;2022-09-17T10:55:28;2.30;;;1.57;;
22388;SDS011;11362;48.102;11.620;2022-09-17T11:00:37;2.60;;;1.60;;
22388;SDS011;11362;48.102;11.620;2022-09-17T11:08:32;1.70;;;1.20;;
22388;SDS011;11362;48.102;11.620;2022-09-17T11:17:07;2.83;;;1.50;;
22388;SDS011;11362;48.102;11.620;2022-09-17T11:33:49;3.83;;;1.87;;
22388;SDS011;11362;48.102;11.620;2022-09-17T11:36:23;2.93;;;1.40;;
22388;SDS011;11362;48.102;11.620;2022-09-17T11:38:53;1.20;;;1.20;;
22388;SDS011;11362;48.102;11.620;2022-09-17T11:41:24;3.50;;;1.53;;
22388;SDS011;11362;48.102;11.620;2022-09-17T11:46:22;2.77;;;1.30;;
22388;SDS011;11362;48.102;11.620;2022-09-17T11:51:49;1.23;;;1.13;;
22388;SDS011;11362;48.102;11.620;2022-09-17T11:54:34;1.83;;;1.30;;
22388;SDS011;11362;48.102;11.620;2022-09-17T11:59:42;1.40;;;1.30;;
22388;SDS011;11362;48.102;11.620;2022-09-17T12:05:15;1.43;;;1.10;;
22388;SDS011;11362;48.102;11.620;2022-09-17T12:07:54;1.10;;;1.00;;
22388;SDS011;11362;48.102;11.620;2022-09-17T12:16:36;1.53;;;1.23;;
22388;SDS011;11362;48.102;11.620;2022-09-17T12:21:42;2.03;;;1.57;;
22388;SDS011;11362;48.102;11.620;2022-09-17T12:35:18;1.47;;;1.30;;
22388;SDS011;11362;48.102;11.620;2022-09-17T12:48:48;2.10;;;1.00;;
22388;SDS011;11362;48.102;11.620;2022-09-17T12:54:15;2.43;;;1.07;;
22388;SDS011;11362;48.102;11.620;2022-09-17T12:57:06;0.83;;;0.83;;
22388;SDS011;11362;48.102;11.620;2022-09-17T13:00:03;1.27;;;1.00;;
22388;SDS011;11362;48.102;11.620;2022-09-17T13:02:36;2.13;;;1.10;;
22388;SDS011;11362;48.102;11.620;2022-09-17T13:05:16;1.17;;;1.07;;
22388;SDS011;11362;48.102;11.620;2022-09-17T13:08:18;4.37;;;1.20;;
22388;SDS011;11362;48.102;11.620;2022-09-17T13:13:51;0.93;;;0.90;;
22388;SDS011;11362;48.102;11.620;2022-09-17T13:21:50;0.80;;;0.80;;
22388;SDS011;11362;48.102;11.620;2022-09-17T13:24:18;2.03;;;0.90;;
22388;SDS011;11362;48.102;11.620;2022-09-17T13:26:45;0.70;;;0.70;;
22388;SDS011;11362;48.102;11.620;2022-09-17T13:29:11;1.37;;;0.80;;
22388;SDS011;11362;48.102;11.620;2022-09-17T13:31:57;1.60;;;0.70;;
22388;SDS011;11362;48.102;11.620;2022-09-17T13:34:25;1.00;;;0.90;;
22388;SDS011;11362;48.102;11.620;2022-09-17T13:36:56;1.40;;;1.10;;
22388;SDS011;11362;48.102;11.620;2022-09-17T13:42:11;1.60;;;0.90;;
22388;SDS011;11362;48.102;11.620;2022-09-17T13:44:40;0.57;;;0.57;;
22388;SDS011;11362;48.102;11.620;2022-09-17T13:47:14;0.97;;;0.80;;
22388;SDS011;11362;48.102;11.620;2022-09-17T13:49:43;1.27;;;1.00;;
22388;SDS011;11362;48.102;11.620;2022-09-17T13:52:12;1.73;;;0.80;;
22388;SDS011;11362;48.102;11.620;2022-09-17T13:54:37;0.80;;;0.80;;
22388;SDS011;11362;48.102;11.620;2022-09-17T13:57:07;2.30;;;0.90;;
22388;SDS011;11362;48.102;11.620;2022-09-17T13:59:35;1.40;;;1.03;;
22388;SDS011;11362;48.102;11.620;2022-09-17T14:09:49;1.10;;;0.80;;
22388;SDS011;11362;48.102;11.620;2022-09-17T14:15:02;1.43;;;1.33;;
22388;SDS011;11362;48.102;11.620;2022-09-17T14:17:49;1.63;;;1.23;;
22388;SDS011;11362;48.102;11.620;2022-09-17T14:20:16;0.80;;;0.80;;
22388;SDS011;11362;48.102;11.620;2022-09-17T14:22:56;0.83;;;0.83;;
22388;SDS011;11362;48.102;11.620;2022-09-17T14:25:26;1.00;;;0.90;;
22388;SDS011;11362;48.102;11.620;2022-09-17T14:27:59;0.83;;;0.80;;
22388;SDS011;11362;48.102;11.620;2022-09-17T14:30:32;0.67;;;0.60;;
22388;SDS011;11362;48.102;11.620;2022-09-17T14:33:09;0.90;;;0.90;;
22388;SDS011;11362;48.102;11.620;2022-09-17T14:35:42;1.87;;;0.80;;
22388;SDS011;11362;48.102;11.620;2022-09-17T14:38:11;1.27;;;0.90;;
22388;SDS011;11362;48.102;11.620;2022-09-17T14:40:41;0.77;;;0.77;;
22388;SDS011;11362;48.102;11.620;2022-09-17T14:43:16;0.80;;;0.60;;
22388;SDS011;11362;48.102;11.620;2022-09-17T14:45:59;1.77;;;0.80;;
22388;SDS011;11362;48.102;11.620;2022-09-17T14:48:28;0.80;;;0.73;;
22388;SDS011;11362;48.102;11.620;2022-09-17T14:51:37;0.80;;;0.80;;
22388;SDS011;11362;48.102;11.620;2022-09-17T14:53:43;1.30;;;0.80;;
22388;SDS011;11362;48.102;11.620;2022-09-17T14:56:12;1.37;;;0.73;;
22388;SDS011;11362;48.102;11.620;2022-09-17T14:58:41;0.70;;;0.70;;
22388;SDS011;11362;48.102;11.620;2022-09-17T15:01:21;0.80;;;0.63;;
22388;SDS011;11362;48.102;11.620;2022-09-17T15:03:48;0.73;;;0.73;;
22388;SDS011;11362;48.102;11.620;2022-09-17T15:06:22;1.93;;;0.70;;
22388;SDS011;11362;48.102;11.620;2022-09-17T15:08:47;2.57;;;0.73;;
22388;SDS011;11362;48.102;11.620;2022-09-17T15:11:13;3.60;;;0.80;;
22388;SDS011;11362;48.102;11.620;2022-09-17T15:13:48;1.13;;;0.70;;
22388;SDS011;11362;48.102;11.620;2022-09-17T15:16:17;0.70;;;0.70;;
22388;SDS011;11362;48.102;11.620;2022-09-17T15:18:52;0.67;;;0.67;;
22388;SDS011;11362;48.102;11.620;2022-09-17T15:21:38;0.80;;;0.63;;
22388;SDS011;11362;48.102;11.620;2022-09-17T15:26:42;0.57;;;0.50;;
22388;SDS011;11362;48.102;11.620;2022-09-17T15:29:13;2.73;;;0.73;;
22388;SDS011;11362;48.102;11.620;2022-09-17T15:31:39;0.57;;;0.57;;
22388;SDS011;11362;48.102;11.620;2022-09-17T15:34:04;0.50;;;0.50;;
22388;SDS011;11362;48.102;11.620;2022-09-17T15:36:30;0.87;;;0.77;;
22388;SDS011;11362;48.102;11.620;2022-09-17T15:38:55;0.70;;;0.60;;
22388;SDS011;11362;48.102;11.620;2022-09-17T15:41:26;1.23;;;0.63;;
22388;SDS011;11362;48.102;11.620;2022-09-17T15:44:12;0.93;;;0.63;;
22388;SDS011;11362;48.102;11.620;2022-09-17T15:46:46;0.80;;;0.80;;
22388;SDS011;11362;48.102;11.620;2022-09-17T15:49:31;1.60;;;0.70;;
22388;SDS011;11362;48.102;11.620;2022-09-17T15:54:52;0.50;;;0.50;;
22388;SDS011;11362;48.102;11.620;2022-09-17T15:57:17;2.17;;;0.70;;
22388;SDS011;11362;48.102;11.620;2022-09-17T15:59:46;1.80;;;0.80;;
22388;SDS011;11362;48.102;11.620;2022-09-17T16:02:26;0.67;;;0.60;;
22388;SDS011;11362;48.102;11.620;2022-09-17T16:05:19;0.53;;;0.53;;
22388;SDS011;11362;48.102;11.620;2022-09-17T16:07:42;0.57;;;0.57;;
22388;SDS011;11362;48.102;11.620;2022-09-17T16:10:09;0.53;;;0.53;;
22388;SDS011;11362;48.102;11.620;2022-09-17T16:12:36;0.67;;;0.60;;
22388;SDS011;11362;48.102;11.620;2022-09-17T16:15:02;0.83;;;0.83;;
22388;SDS011;11362;48.102;11.620;2022-09-17T16:17:33;2.03;;;0.87;;
22388;SDS011;11362;48.102;11.620;2022-09-17T16:22:43;0.60;;;0.60;;
22388;SDS011;11362;48.102;11.620;2022-09-17T16:25:09;0.63;;;0.63;;
22388;SDS011;11362;48.102;11.620;2022-09-17T16:27:46;0.60;;;0.60;;
22388;SDS011;11362;48.102;11.620;2022-09-17T16:30:18;0.60;;;0.60;;
22388;SDS011;11362;48.102;11.620;2022-09-17T16:32:45;0.60;;;0.60;;
22388;SDS011;11362;48.102;11.620;2022-09-17T16:35:11;0.40;;;0.40;;
22388;SDS011;11362;48.102;11.620;2022-09-17T16:37:41;0.40;;;0.40;;
22388;SDS011;11362;48.102;11.620;2022-09-17T16:40:08;0.67;;;0.60;;
22388;SDS011;11362;48.102;11.620;2022-09-17T16:42:35;0.90;;;0.57;;
22388;SDS011;11362;48.102;11.620;2022-09-17T16:45:01;0.50;;;0.50;;
22388;SDS011;11362;48.102;11.620;2022-09-17T16:47:26;0.43;;;0.43;;
22388;SDS011;11362;48.102;11.620;2022-09-17T16:49:51;1.43;;;0.63;;
22388;SDS011;11362;48.102;11.620;2022-09-17T16:52:16;0.80;;;0.80;;
22388;SDS011;11362;48.102;11.620;2022-09-17T16:54:42;0.53;;;0.53;;
22388;SDS011;11362;48.102;11.620;2022-09-17T16:57:07;0.70;;;0.53;;
22388;SDS011;11362;48.102;11.620;2022-09-17T16:59:32;0.40;;;0.40;;
22388;SDS011;11362;48.102;11.620;2022-09-17T17:01:57;0.60;;;0.50;;
22388;SDS011;11362;48.102;11.620;2022-09-17T17:04:23;0.40;;;0.40;;
22388;SDS011;11362;48.102;11.620;2022-09-17T17:06:48;1.17;;;0.60;;
22388;SDS011;11362;48.102;11.620;2022-09-17T17:09:14;1.17;;;0.60;;
22388;SDS011;11362;48.102;11.620;2022-09-17T17:11:39;0.57;;;0.40;;
22388;SDS011;11362;48.102;11.620;2022-09-17T17:14:04;1.27;;;0.33;;
22388;SDS011;11362;48.102;11.620;2022-09-17T17:16:30;0.40;;;0.40;;
22388;SDS011;11362;48.102;11.620;2022-09-17T17:18:55;0.50;;;0.50;;
22388;SDS011;11362;48.102;11.620;2022-09-17T17:21:21;0.53;;;0.53;;
22388;SDS011;11362;48.102;11.620;2022-09-17T17:23:46;0.30;;;0.30;;
22388;SDS011;11362;48.102;11.620;2022-09-17T17:26:11;0.87;;;0.57;;
22388;SDS011;11362;48.102;11.620;2022-09-17T17:28:37;0.93;;;0.57;;
22388;SDS011;11362;48.102;11.620;2022-09-17T17:31:03;0.47;;;0.47;;
22388;SDS011;11362;48.102;11.620;2022-09-17T17:33:28;0.67;;;0.67;;